Time;durP1;ratioP1;P1;durP2;ratioP2;P2;SDS_P1;SDS_P2;PMS_P1;PMS_P2;Temp;Humidity;BMP_temperature;BMP_pressure;BME280_temperature;BME280_humidity;BME280_pressure;Samples;Min_cycle;Max_cycle;Signal;HPM_P1;HPM_P2
2022/09/10 00:01:17;;;;;;;11.75;3.83;;;15.80;99.90;;;;;;5026710;28;20523;-71
2022/09/10 00:03:43;;;;;;;15.98;3.00;;;15.80;99.90;;;;;;5024627;28;20525;-71
2022/09/10 00:06:09;;;;;;;9.77;3.20;;;15.70;99.90;;;;;;5026893;28;20064;-71
2022/09/10 00:08:36;;;;;;;7.55;3.00;;;15.70;99.90;;;;;;5026519;28;20049;-71
2022/09/10 00:11:05;;;;;;;8.88;3.13;;;15.70;99.90;;;;;;5025993;28;21025;-71
2022/09/10 00:13:31;;;;;;;18.17;4.18;;;15.70;99.90;;;;;;5022060;28;20041;-71
2022/09/10 00:15:58;;;;;;;9.85;3.40;;;15.70;99.90;;;;;;5024350;28;20030;-72
2022/09/10 00:18:24;;;;;;;11.50;4.65;;;15.60;99.90;;;;;;5026454;28;20075;-71
2022/09/10 00:20:54;;;;;;;14.18;3.80;;;15.60;99.90;;;;;;5025656;28;20029;-71
2022/09/10 00:23:22;;;;;;;10.20;3.38;;;15.60;99.90;;;;;;5028394;28;20034;-72
2022/09/10 00:25:50;;;;;;;14.35;3.35;;;15.60;99.90;;;;;;5031143;28;20041;-72
2022/09/10 00:28:17;;;;;;;9.80;3.55;;;15.60;99.90;;;;;;5031996;28;20030;-71
2022/09/10 00:30:45;;;;;;;10.25;3.92;;;15.60;99.90;;;;;;5026053;28;20069;-71
2022/09/10 00:33:11;;;;;;;15.73;4.18;;;15.60;99.90;;;;;;5024049;28;20489;-72
2022/09/10 00:35:39;;;;;;;10.52;4.32;;;15.60;99.90;;;;;;5025011;28;20076;-71
2022/09/10 00:38:05;;;;;;;17.42;4.13;;;15.60;99.90;;;;;;5023889;28;20381;-71
2022/09/10 00:40:32;;;;;;;12.65;4.00;;;15.50;99.90;;;;;;5012523;28;20418;-72
2022/09/10 00:42:58;;;;;;;13.15;4.65;;;15.50;99.90;;;;;;5020739;28;20041;-71
2022/09/10 00:45:27;;;;;;;12.60;4.78;;;15.60;99.90;;;;;;5025603;28;20397;-71
2022/09/10 00:47:56;;;;;;;13.48;4.47;;;15.60;99.90;;;;;;5023473;28;20037;-72
2022/09/10 00:50:32;;;;;;;11.83;4.27;;;15.60;99.90;;;;;;5026299;28;20044;-72
2022/09/10 00:53:02;;;;;;;13.05;3.97;;;15.60;99.90;;;;;;5020996;28;20030;-71
2022/09/10 00:55:28;;;;;;;;;;;15.60;99.90;;;;;;5022318;28;20041;-71
2022/09/10 00:57:59;;;;;;;10.73;4.85;;;15.60;99.90;;;;;;5025130;28;19920;-71
2022/09/10 01:00:24;;;;;;;12.88;4.80;;;15.60;99.90;;;;;;5025790;28;20112;-71
2022/09/10 01:02:51;;;;;;;8.63;3.88;;;15.60;99.90;;;;;;5023902;28;20132;-71
2022/09/10 01:05:18;;;;;;;15.32;4.20;;;15.50;99.90;;;;;;5025032;28;20029;-71
2022/09/10 01:07:44;;;;;;;11.60;4.07;;;15.50;99.90;;;;;;5024379;28;20033;-71
2022/09/10 01:10:14;;;;;;;11.10;4.05;;;15.50;99.90;;;;;;5025280;28;20513;-71
2022/09/10 01:13:02;;;;;;;9.30;4.70;;;15.50;99.90;;;;;;5024224;28;20382;-69
2022/09/10 01:15:42;;;;;;;9.57;3.80;;;15.50;99.90;;;;;;5021594;28;20076;-71
2022/09/10 01:18:14;;;;;;;11.43;3.40;;;15.40;99.90;;;;;;5022869;28;20083;-72
2022/09/10 01:21:03;;;;;;;11.45;3.40;;;15.40;99.90;;;;;;5029972;28;20806;-71
2022/09/10 01:23:45;;;;;;;12.10;3.78;;;15.40;99.90;;;;;;5031534;28;20067;-71
2022/09/10 01:26:40;;;;;;;9.00;4.07;;;15.40;99.90;;;;;;5034757;28;20041;-72
2022/09/10 01:29:38;;;;;;;10.10;3.10;;;15.40;99.90;;;;;;5022200;28;20541;-73
2022/09/10 01:32:14;;;;;;;7.85;3.00;;;15.40;99.90;;;;;;5021785;28;20030;-70
2022/09/10 01:34:53;;;;;;;14.20;3.88;;;15.50;99.90;;;;;;5023626;28;20041;-71
2022/09/10 01:37:27;;;;;;;14.00;3.90;;;15.40;99.90;;;;;;5027531;28;20099;-72
2022/09/10 01:39:55;;;;;;;14.73;3.40;;;15.40;99.90;;;;;;5026581;28;20036;-72
2022/09/10 01:42:27;;;;;;;9.02;3.40;;;15.40;99.90;;;;;;5031058;28;20025;-72
2022/09/10 01:44:54;;;;;;;10.40;4.05;;;15.40;99.90;;;;;;5019840;28;20037;-72
2022/09/10 01:47:25;;;;;;;11.00;4.00;;;15.40;99.90;;;;;;5024876;28;20030;-71
2022/09/10 01:50:03;;;;;;;6.88;3.58;;;15.40;99.90;;;;;;5023481;28;20117;-71
2022/09/10 01:52:38;;;;;;;14.10;4.25;;;15.40;99.90;;;;;;5010089;28;20033;-71
2022/09/10 01:55:36;;;;;;;8.32;3.97;;;15.40;99.90;;;;;;5018168;28;20044;-70
2022/09/10 01:58:28;;;;;;;5.70;3.30;;;15.40;99.90;;;;;;4994308;28;20030;-72
2022/09/10 02:01:14;;;;;;;8.65;3.58;;;15.40;99.90;;;;;;5018354;28;20098;-72
2022/09/10 02:03:41;;;;;;;7.35;3.13;;;15.40;99.90;;;;;;5021271;28;20065;-71
2022/09/10 02:06:12;;;;;;;8.30;3.85;;;15.30;99.90;;;;;;5024692;28;20091;-71
2022/09/10 02:08:40;;;;;;;10.43;4.80;;;15.30;99.90;;;;;;5024513;28;20030;-72
2022/09/10 02:11:10;;;;;;;13.95;6.43;;;15.30;99.90;;;;;;5024395;28;20068;-72
2022/09/10 02:13:37;;;;;;;10.48;4.88;;;15.30;99.90;;;;;;5023707;28;20065;-71
2022/09/10 02:16:06;;;;;;;11.63;6.03;;;15.30;99.90;;;;;;5024043;28;20042;-71
2022/09/10 02:18:32;;;;;;;13.23;6.43;;;15.40;99.90;;;;;;5024286;28;20571;-71
2022/09/10 02:21:01;;;;;;;17.02;7.13;;;15.40;99.90;;;;;;5024148;28;20125;-71
2022/09/10 02:23:47;;;;;;;17.75;7.30;;;15.50;99.90;;;;;;5024174;28;20041;-72
2022/09/10 02:26:14;;;;;;;17.75;7.30;;;15.40;99.90;;;;;;5023255;28;20046;-72
2022/09/10 02:28:40;;;;;;;13.77;7.80;;;15.50;99.90;;;;;;5024271;28;20521;-71
2022/09/10 02:31:06;;;;;;;19.90;7.95;;;15.50;99.90;;;;;;5024582;28;20045;-71
2022/09/10 02:33:31;;;;;;;15.73;7.32;;;15.50;99.90;;;;;;5023621;28;20044;-71
2022/09/10 02:35:57;;;;;;;16.70;7.75;;;15.50;99.90;;;;;;5024552;28;20113;-72
2022/09/10 02:38:23;;;;;;;18.40;7.57;;;15.50;99.90;;;;;;5026751;28;20059;-71
2022/09/10 02:40:49;;;;;;;12.95;7.65;;;15.60;99.90;;;;;;5027381;28;20126;-71
2022/09/10 02:43:16;;;;;;;17.30;7.60;;;15.50;99.90;;;;;;5027977;28;20056;-70
2022/09/10 02:45:41;;;;;;;15.07;7.30;;;15.50;99.90;;;;;;5027126;28;20037;-71
2022/09/10 02:48:07;;;;;;;17.08;7.57;;;15.50;99.90;;;;;;5028299;28;20041;-71
2022/09/10 02:50:33;;;;;;;19.92;8.55;;;15.60;99.90;;;;;;5030452;28;20041;-70
2022/09/10 02:52:59;;;;;;;24.63;8.95;;;15.60;99.90;;;;;;5036299;28;20036;-72
2022/09/10 02:55:26;;;;;;;17.58;8.90;;;15.60;99.90;;;;;;5038343;28;20061;-72
2022/09/10 02:57:52;;;;;;;17.17;7.72;;;15.60;99.90;;;;;;5036705;28;20037;-71
2022/09/10 03:00:19;;;;;;;19.55;9.18;;;15.60;99.90;;;;;;5031035;28;20029;-71
2022/09/10 03:02:46;;;;;;;19.40;8.23;;;15.60;99.90;;;;;;5026902;28;20120;-70
2022/09/10 03:05:13;;;;;;;17.75;8.50;;;15.60;99.90;;;;;;5027587;28;20042;-72
2022/09/10 03:07:39;;;;;;;17.95;8.55;;;15.60;99.90;;;;;;5027251;28;20182;-71
2022/09/10 03:10:05;;;;;;;15.95;8.57;;;15.60;99.90;;;;;;5026946;28;20033;-71
2022/09/10 03:12:32;;;;;;;18.13;8.60;;;15.60;99.90;;;;;;5026910;28;20037;-71
2022/09/10 03:14:57;;;;;;;18.02;7.50;;;15.60;99.90;;;;;;5026311;28;20030;-72
2022/09/10 03:17:24;;;;;;;14.10;8.25;;;15.60;99.90;;;;;;5027465;28;20033;-71
2022/09/10 03:19:50;;;;;;;19.95;8.38;;;15.60;99.90;;;;;;5026536;28;20057;-72
2022/09/10 03:22:16;;;;;;;14.90;8.93;;;15.60;99.90;;;;;;5026119;28;20037;-72
2022/09/10 03:24:42;;;;;;;12.98;7.40;;;15.60;99.90;;;;;;5025489;28;20045;-71
2022/09/10 03:27:08;;;;;;;18.70;8.63;;;15.60;99.90;;;;;;5027481;28;20091;-71
2022/09/10 03:29:34;;;;;;;17.42;8.75;;;15.60;99.90;;;;;;5026848;28;20428;-72
2022/09/10 03:32:00;;;;;;;16.60;7.72;;;15.60;99.90;;;;;;5026815;28;20033;-72
2022/09/10 03:34:25;;;;;;;16.85;8.40;;;15.60;99.90;;;;;;5026521;28;20045;-72
2022/09/10 03:36:51;;;;;;;15.45;7.72;;;15.70;99.90;;;;;;5026141;28;20045;-72
2022/09/10 03:39:17;;;;;;;15.40;8.20;;;15.70;99.90;;;;;;5022482;28;20033;-72
2022/09/10 03:41:44;;;;;;;15.50;8.25;;;15.70;99.90;;;;;;5017575;28;20030;-72
2022/09/10 03:44:10;;;;;;;17.27;8.20;;;15.70;99.90;;;;;;5026757;28;20037;-72
2022/09/10 03:46:37;;;;;;;18.42;9.05;;;15.70;99.90;;;;;;5027044;28;20040;-72
2022/09/10 03:49:06;;;;;;;16.48;7.93;;;15.60;99.90;;;;;;5025883;28;21006;-72
2022/09/10 03:51:32;;;;;;;14.27;7.47;;;15.70;99.90;;;;;;5026357;28;20045;-71
2022/09/10 03:53:59;;;;;;;14.43;7.90;;;15.70;99.90;;;;;;5025537;28;20398;-72
2022/09/10 03:56:25;;;;;;;15.52;8.30;;;15.70;99.90;;;;;;5026631;28;20041;-72
2022/09/10 03:58:51;;;;;;;15.65;9.00;;;15.70;99.90;;;;;;5025951;28;20034;-71
2022/09/10 04:01:17;;;;;;;14.48;7.80;;;15.70;99.90;;;;;;5027177;28;20033;-72
2022/09/10 04:03:43;;;;;;;13.05;7.13;;;15.70;99.90;;;;;;5027143;28;20048;-72
2022/09/10 04:06:13;;;;;;;16.67;7.72;;;15.70;99.90;;;;;;5034153;28;20128;-71
2022/09/10 04:08:39;;;;;;;14.55;7.60;;;15.70;99.90;;;;;;5031874;28;20159;-70
2022/09/10 04:11:05;;;;;;;13.55;7.78;;;15.70;99.90;;;;;;5026909;28;20125;-72
2022/09/10 04:13:31;;;;;;;17.08;7.93;;;15.70;99.90;;;;;;5026312;28;20080;-71
2022/09/10 04:15:59;;;;;;;18.55;8.70;;;15.70;99.90;;;;;;5026839;28;20100;-72
2022/09/10 04:18:26;;;;;;;15.57;8.75;;;15.70;99.90;;;;;;5025473;28;20780;-72
2022/09/10 04:20:53;;;;;;;17.42;8.32;;;15.70;99.90;;;;;;5025533;28;20029;-71
2022/09/10 04:23:19;;;;;;;26.45;9.85;;;15.70;99.90;;;;;;5026852;28;20405;-72
2022/09/10 04:25:45;;;;;;;21.88;9.45;;;15.70;99.90;;;;;;5030790;28;20064;-72
2022/09/10 04:28:12;;;;;;;20.65;9.95;;;15.70;99.90;;;;;;5031817;28;20033;-72
2022/09/10 04:30:39;;;;;;;19.58;9.38;;;15.70;99.90;;;;;;5030083;28;20049;-73
2022/09/10 04:33:04;;;;;;;15.93;8.45;;;15.70;99.90;;;;;;5025250;28;20379;-71
2022/09/10 04:35:30;;;;;;;20.33;9.70;;;15.70;99.90;;;;;;5025753;28;20041;-71
2022/09/10 04:37:56;;;;;;;19.08;8.82;;;15.70;99.90;;;;;;5025765;28;20040;-72
2022/09/10 04:40:21;;;;;;;23.80;8.35;;;15.70;99.90;;;;;;5024359;28;20034;-71
2022/09/10 04:42:47;;;;;;;21.70;9.25;;;15.70;99.90;;;;;;5024585;28;20033;-72
2022/09/10 04:45:12;;;;;;;20.17;8.73;;;15.70;99.90;;;;;;5026280;28;20045;-72
2022/09/10 04:47:39;;;;;;;14.27;7.53;;;15.70;99.90;;;;;;5025883;28;20528;-71
2022/09/10 04:50:05;;;;;;;17.35;7.35;;;15.70;99.90;;;;;;5025477;28;20057;-71
2022/09/10 04:52:31;;;;;;;16.75;6.57;;;15.70;99.90;;;;;;5025516;28;20132;-73
2022/09/10 04:54:57;;;;;;;18.77;7.55;;;15.60;99.90;;;;;;5024655;28;20034;-72
2022/09/10 04:57:24;;;;;;;15.43;6.35;;;15.60;99.90;;;;;;5025929;28;20033;-72
2022/09/10 04:59:52;;;;;;;10.63;5.50;;;15.60;99.90;;;;;;5025533;28;20034;-70
2022/09/10 05:02:18;;;;;;;11.90;6.07;;;15.60;99.90;;;;;;5025299;28;20505;-72
2022/09/10 05:04:44;;;;;;;11.95;5.25;;;15.70;99.90;;;;;;5023118;28;20041;-73
2022/09/10 05:07:09;;;;;;;13.43;6.00;;;15.60;99.90;;;;;;5026554;28;20040;-70
2022/09/10 05:09:35;;;;;;;12.65;5.45;;;15.60;99.90;;;;;;5024871;28;21591;-72
2022/09/10 05:12:01;;;;;;;13.13;5.65;;;15.60;99.90;;;;;;5025086;28;20772;-72
2022/09/10 05:14:28;;;;;;;14.15;5.88;;;15.60;99.90;;;;;;5025179;28;20034;-72
2022/09/10 05:16:54;;;;;;;12.07;5.35;;;15.70;99.90;;;;;;5025502;28;20402;-71
2022/09/10 05:19:20;;;;;;;16.50;6.85;;;15.60;99.90;;;;;;5032935;28;20038;-72
2022/09/10 05:21:47;;;;;;;12.70;5.55;;;15.60;99.90;;;;;;5031366;28;20508;-72
2022/09/10 05:24:13;;;;;;;10.57;4.80;;;15.60;99.90;;;;;;5024725;28;20033;-71
2022/09/10 05:26:39;;;;;;;15.23;6.10;;;15.60;99.90;;;;;;5024852;28;20037;-71
2022/09/10 05:29:05;;;;;;;12.18;6.05;;;15.60;99.90;;;;;;5024771;28;20037;-72
2022/09/10 05:31:32;;;;;;;13.25;5.68;;;15.60;99.90;;;;;;5021542;28;20046;-72
2022/09/10 05:34:00;;;;;;;13.80;5.97;;;15.70;99.90;;;;;;5024267;28;20091;-72
2022/09/10 05:36:26;;;;;;;15.25;6.40;;;15.70;99.90;;;;;;5025843;28;20038;-70
2022/09/10 05:38:53;;;;;;;15.07;6.85;;;15.70;99.90;;;;;;5024271;28;20171;-72
2022/09/10 05:41:20;;;;;;;15.57;6.97;;;15.70;99.90;;;;;;5024123;28;20611;-72
2022/09/10 05:43:46;;;;;;;13.95;6.90;;;15.70;99.90;;;;;;5018967;28;20061;-72
2022/09/10 05:46:11;;;;;;;17.02;7.88;;;15.80;99.90;;;;;;5020912;28;20052;-73
2022/09/10 05:48:38;;;;;;;22.50;7.88;;;15.80;99.90;;;;;;5024534;28;20026;-73
2022/09/10 05:51:04;;;;;;;19.80;7.90;;;15.80;99.90;;;;;;5024757;28;20045;-72
2022/09/10 05:53:29;;;;;;;13.10;7.88;;;15.80;99.90;;;;;;5024166;28;20417;-71
2022/09/10 05:55:55;;;;;;;12.82;7.25;;;15.90;99.90;;;;;;5026655;28;20047;-73
2022/09/10 05:58:21;;;;;;;16.05;7.72;;;15.90;99.90;;;;;;5035429;28;20436;-72
2022/09/10 06:00:53;;;;;;;15.98;7.75;;;15.90;99.90;;;;;;5034058;28;20025;-71
2022/09/10 06:03:19;;;;;;;17.13;8.18;;;16.00;99.90;;;;;;5027262;28;20125;-72
2022/09/10 06:05:50;;;;;;;16.23;7.70;;;16.00;99.90;;;;;;5024280;28;20034;-72
2022/09/10 06:08:16;;;;;;;23.65;7.30;;;16.10;99.90;;;;;;5024800;28;20033;-71
2022/09/10 06:10:42;;;;;;;15.82;7.03;;;16.10;99.90;;;;;;5023570;28;20101;-72
2022/09/10 06:13:10;;;;;;;17.48;7.55;;;16.10;99.90;;;;;;5025269;28;20116;-72
2022/09/10 06:15:36;;;;;;;14.60;7.43;;;16.10;99.90;;;;;;5027507;28;20037;-72
2022/09/10 06:18:02;;;;;;;18.42;7.57;;;16.10;99.90;;;;;;5026182;28;20124;-72
2022/09/10 06:20:28;;;;;;;15.75;7.22;;;16.20;99.90;;;;;;5027835;28;20548;-71
2022/09/10 06:22:54;;;;;;;16.42;7.80;;;16.30;99.90;;;;;;5025794;28;20049;-72
2022/09/10 06:25:20;;;;;;;15.40;7.03;;;16.30;99.90;;;;;;5028459;28;20049;-72
2022/09/10 06:27:46;;;;;;;13.70;6.45;;;16.30;99.90;;;;;;5028340;28;20057;-71
2022/09/10 06:30:13;;;;;;;14.05;6.63;;;16.30;99.90;;;;;;5032773;28;20485;-72
2022/09/10 06:32:38;;;;;;;14.57;7.50;;;16.40;99.90;;;;;;5027803;28;20041;-72
2022/09/10 06:35:05;;;;;;;14.43;7.25;;;16.40;99.90;;;;;;5029922;28;20128;-72
2022/09/10 06:37:33;;;;;;;15.98;7.07;;;16.50;99.90;;;;;;5027105;28;20425;-72
2022/09/10 06:39:59;;;;;;;11.00;6.38;;;16.50;99.90;;;;;;5022767;28;20064;-72
2022/09/10 06:42:25;;;;;;;16.85;7.28;;;16.50;99.90;;;;;;5026632;28;20044;-72
2022/09/10 06:44:51;;;;;;;11.60;7.10;;;16.50;99.90;;;;;;5026816;28;20459;-73
2022/09/10 06:47:17;;;;;;;11.65;6.25;;;16.60;99.90;;;;;;5026895;28;20036;-72
2022/09/10 06:49:43;;;;;;;10.77;6.07;;;16.60;99.90;;;;;;5025820;28;20429;-71
2022/09/10 06:52:10;;;;;;;13.13;6.00;;;16.60;99.90;;;;;;5027043;28;20030;-72
2022/09/10 06:54:36;;;;;;;12.15;5.95;;;16.60;99.90;;;;;;5021225;28;20030;-72
2022/09/10 06:57:03;;;;;;;11.85;5.60;;;16.60;99.90;;;;;;5024381;28;20075;-72
2022/09/10 06:59:30;;;;;;;11.65;6.10;;;16.60;99.90;;;;;;5026847;28;20706;-71
2022/09/10 07:01:56;;;;;;;10.55;6.07;;;16.60;99.90;;;;;;5026129;28;20068;-72
2022/09/10 07:04:22;;;;;;;13.50;6.15;;;16.70;99.90;;;;;;5026824;28;20025;-72
2022/09/10 07:06:47;;;;;;;16.52;5.93;;;16.70;99.90;;;;;;5026644;28;20040;-72
2022/09/10 07:09:13;;;;;;;10.40;5.65;;;16.80;99.90;;;;;;5027198;28;20080;-71
2022/09/10 07:11:39;;;;;;;13.70;6.05;;;16.80;99.90;;;;;;5026582;28;20069;-71
2022/09/10 07:14:05;;;;;;;12.63;5.15;;;16.90;99.90;;;;;;5026057;28;20462;-72
2022/09/10 07:16:30;;;;;;;13.18;5.78;;;17.00;99.90;;;;;;5026297;28;20038;-71
2022/09/10 07:18:58;;;;;;;12.18;5.93;;;17.00;99.90;;;;;;5027239;28;20042;-73
2022/09/10 07:21:26;;;;;;;13.88;5.18;;;17.10;99.90;;;;;;5027419;28;20038;-70
2022/09/10 07:24:01;;;;;;;9.52;4.88;;;17.20;99.90;;;;;;5016674;28;20053;-71
2022/09/10 07:26:28;;;;;;;9.18;4.68;;;17.30;99.90;;;;;;5031738;28;20045;-70
2022/09/10 07:28:54;;;;;;;10.30;5.05;;;17.40;99.90;;;;;;5032785;28;20744;-73
2022/09/10 07:31:29;;;;;;;9.32;5.13;;;17.50;99.90;;;;;;5033491;28;20067;-72
2022/09/10 07:33:58;;;;;;;8.23;4.68;;;17.60;99.90;;;;;;5025168;28;20041;-72
2022/09/10 07:36:24;;;;;;;10.10;4.68;;;17.70;99.90;;;;;;5026208;28;20042;-72
2022/09/10 07:38:56;;;;;;;9.43;4.93;;;17.70;99.90;;;;;;5025514;28;20049;-72
2022/09/10 07:41:22;;;;;;;10.30;3.58;;;17.50;99.90;;;;;;5027521;28;20030;-71
2022/09/10 07:43:52;;;;;;;9.05;2.95;;;17.50;99.90;;;;;;5033780;28;20029;-72
2022/09/10 07:46:19;;;;;;;10.55;2.97;;;17.40;99.90;;;;;;5035516;28;20109;-73
2022/09/10 07:48:55;;;;;;;11.20;3.25;;;17.40;99.90;;;;;;5026950;28;20037;-72
2022/09/10 07:51:22;;;;;;;5.28;2.63;;;17.40;99.90;;;;;;5027284;28;20033;-71
2022/09/10 07:53:52;;;;;;;7.47;2.75;;;17.30;99.90;;;;;;5025661;28;20171;-73
2022/09/10 07:56:18;;;;;;;8.90;2.67;;;17.30;99.90;;;;;;5026607;28;20037;-74
2022/09/10 07:58:44;;;;;;;6.57;3.10;;;17.30;99.90;;;;;;5025984;28;20044;-72
2022/09/10 08:01:11;;;;;;;6.93;2.83;;;17.30;99.90;;;;;;5026710;28;20039;-73
2022/09/10 08:03:38;;;;;;;7.72;3.00;;;17.30;99.90;;;;;;5025201;28;20034;-72
2022/09/10 08:06:05;;;;;;;10.43;2.75;;;17.40;99.90;;;;;;5026214;28;20124;-72
2022/09/10 08:08:33;;;;;;;9.57;3.25;;;17.40;99.90;;;;;;5022594;28;20036;-72
2022/09/10 08:11:10;;;;;;;6.53;2.53;;;17.40;99.90;;;;;;5026182;28;20124;-72
2022/09/10 08:13:37;;;;;;;7.25;2.65;;;17.40;99.90;;;;;;5021980;28;20041;-72
2022/09/10 08:16:11;;;;;;;9.82;2.83;;;17.40;99.90;;;;;;5025963;28;20128;-72
2022/09/10 08:18:37;;;;;;;6.18;2.10;;;17.50;99.90;;;;;;5022240;28;20065;-71
2022/09/10 08:21:04;;;;;;;5.47;2.20;;;17.40;99.90;;;;;;5025982;28;20455;-70
2022/09/10 08:23:30;;;;;;;9.73;2.45;;;17.40;99.90;;;;;;5019693;28;20056;-72
2022/09/10 08:25:57;;;;;;;14.68;3.10;;;17.30;99.90;;;;;;5025688;28;20033;-72
2022/09/10 08:28:23;;;;;;;8.07;2.90;;;17.30;99.90;;;;;;5024846;28;20041;-72
2022/09/10 08:31:08;;;;;;;8.18;2.63;;;17.20;99.90;;;;;;5024778;28;20110;-71
2022/09/10 08:33:35;;;;;;;5.50;3.03;;;17.20;99.90;;;;;;5021604;28;20037;-72
2022/09/10 08:36:02;;;;;;;6.70;2.90;;;17.20;99.90;;;;;;5025714;28;20382;-72
2022/09/10 08:38:34;;;;;;;8.15;2.95;;;17.30;99.90;;;;;;5026638;28;20038;-71
2022/09/10 08:41:06;;;;;;;8.85;3.83;;;17.50;99.90;;;;;;5021333;28;20041;-72
2022/09/10 08:43:53;;;;;;;10.55;3.22;;;17.60;99.90;;;;;;5021018;28;20044;-72
2022/09/10 08:46:25;;;;;;;10.98;2.58;;;17.80;99.90;;;;;;5023074;28;20037;-72
2022/09/10 08:49:03;;;;;;;6.50;2.72;;;17.90;99.90;;;;;;5025472;28;20029;-73
2022/09/10 08:51:39;;;;;;;4.85;3.08;;;18.00;99.90;;;;;;5021321;28;20119;-71
2022/09/10 08:54:19;;;;;;;6.00;2.55;;;18.00;99.90;;;;;;5021056;28;20541;-72
2022/09/10 08:56:47;;;;;;;4.32;2.10;;;18.10;99.90;;;;;;5024032;28;20215;-73
2022/09/10 08:59:26;;;;;;;4.72;2.85;;;18.20;99.90;;;;;;5032962;28;20083;-71
2022/09/10 09:02:00;;;;;;;3.28;1.90;;;18.30;99.90;;;;;;5038706;28;20560;-72
2022/09/10 09:04:46;;;;;;;6.25;2.05;;;18.40;99.90;;;;;;5035893;28;20041;-72
2022/09/10 09:07:15;;;;;;;2.65;1.85;;;18.60;99.90;;;;;;5032658;28;20034;-73
2022/09/10 09:09:41;;;;;;;5.97;2.42;;;18.60;99.90;;;;;;5026103;28;20116;-73
2022/09/10 09:12:20;;;;;;;3.00;1.90;;;18.80;99.90;;;;;;5023062;28;20041;-73
2022/09/10 09:14:55;;;;;;;3.25;1.50;;;19.10;99.90;;;;;;5016872;28;20041;-72
2022/09/10 09:17:36;;;;;;;1.65;1.17;;;19.20;99.90;;;;;;5025364;28;20071;-73
2022/09/10 09:20:45;;;;;;;4.43;1.40;;;19.10;99.90;;;;;;5021269;28;20049;-71
2022/09/10 09:23:23;;;;;;;2.10;1.30;;;19.00;99.90;;;;;;5011763;28;20064;-73
2022/09/10 09:25:56;;;;;;;5.47;1.55;;;18.90;99.90;;;;;;5016078;28;20490;-71
2022/09/10 09:28:46;;;;;;;3.85;1.25;;;18.70;99.90;;;;;;5013418;28;20114;-72
2022/09/10 09:31:15;;;;;;;5.15;2.25;;;18.70;99.90;;;;;;5020062;28;20098;-72
2022/09/10 09:33:44;;;;;;;3.72;1.10;;;18.80;99.90;;;;;;5015906;28;20033;-72
2022/09/10 09:36:15;;;;;;;1.13;0.90;;;18.90;99.90;;;;;;5014188;28;20034;-73
2022/09/10 09:38:45;;;;;;;4.38;1.65;;;19.10;99.90;;;;;;5008342;28;20087;-71
2022/09/10 09:41:25;;;;;;;5.75;1.60;;;19.30;99.90;;;;;;5015129;28;20663;-73
2022/09/10 09:43:54;;;;;;;3.17;1.25;;;19.40;99.90;;;;;;5014588;28;20393;-72
2022/09/10 09:46:23;;;;;;;4.50;1.65;;;19.60;99.90;;;;;;5016386;28;20044;-72
2022/09/10 09:48:53;;;;;;;2.40;0.98;;;19.70;99.90;;;;;;5020125;28;20037;-74
2022/09/10 09:51:20;;;;;;;4.03;1.38;;;19.70;99.90;;;;;;5018370;28;20119;-74
2022/09/10 09:53:50;;;;;;;4.70;1.20;;;19.90;99.90;;;;;;5022282;28;20465;-74
2022/09/10 09:56:23;;;;;;;2.22;0.98;;;19.80;99.90;;;;;;5028463;28;20490;-72
2022/09/10 09:58:49;;;;;;;4.82;0.82;;;19.80;99.90;;;;;;5022289;28;20041;-74
2022/09/10 10:01:24;;;;;;;3.17;0.70;;;19.60;99.90;;;;;;5027192;28;20441;-74
2022/09/10 10:03:53;;;;;;;1.38;0.80;;;19.40;99.90;;;;;;5025489;28;20046;-74
2022/09/10 10:06:33;;;;;;;3.65;0.70;;;19.40;99.90;;;;;;5027203;28;20045;-73
2022/09/10 10:09:19;;;;;;;3.10;1.05;;;19.40;99.90;;;;;;5022952;28;20037;-74
2022/09/10 10:11:51;;;;;;;2.25;1.00;;;19.60;99.90;;;;;;5025745;28;20033;-73
2022/09/10 10:14:19;;;;;;;3.88;1.20;;;19.70;99.90;;;;;;5025678;28;20137;-74
2022/09/10 10:16:51;;;;;;;2.55;1.30;;;19.70;99.90;;;;;;5022626;28;20037;-73
2022/09/10 10:19:33;;;;;;;3.33;1.80;;;19.70;99.90;;;;;;5021583;28;20481;-72
2022/09/10 10:22:15;;;;;;;1.92;1.20;;;19.90;99.90;;;;;;5015767;28;20047;-71
2022/09/10 10:24:42;;;;;;;3.67;2.15;;;19.80;99.90;;;;;;5020711;28;20501;-71
2022/09/10 10:27:40;;;;;;;6.00;1.52;;;19.80;99.90;;;;;;5021740;28;20570;-72
2022/09/10 10:30:18;;;;;;;5.03;2.05;;;19.70;99.90;;;;;;5019220;28;20041;-71
2022/09/10 10:33:01;;;;;;;2.85;1.77;;;19.60;99.90;;;;;;5018677;28;20116;-72
2022/09/10 10:35:43;;;;;;;2.65;1.77;;;19.60;99.90;;;;;;5019925;28;20044;-72
2022/09/10 10:38:21;;;;;;;5.03;2.20;;;19.60;99.90;;;;;;5019349;28;20072;-72
2022/09/10 10:41:29;;;;;;;4.28;2.13;;;19.50;99.90;;;;;;5020453;28;20849;-71
2022/09/10 10:44:36;;;;;;;6.65;2.70;;;19.30;99.90;;;;;;5001355;28;20083;-72
2022/09/10 10:47:05;;;;;;;2.92;1.90;;;19.20;99.90;;;;;;5011028;28;20045;-72
2022/09/10 10:49:52;;;;;;;3.47;2.38;;;19.10;99.90;;;;;;5027220;28;20053;-72
2022/09/10 10:52:32;;;;;;;3.63;2.30;;;19.10;99.90;;;;;;5030476;28;20042;-72
2022/09/10 10:55:15;;;;;;;3.28;1.60;;;19.30;99.90;;;;;;5027492;28;20057;-72
2022/09/10 10:57:58;;;;;;;1.52;1.08;;;19.30;99.90;;;;;;5024895;28;20061;-72
2022/09/10 11:00:24;;;;;;;2.72;1.10;;;19.30;99.90;;;;;;5016151;28;20116;-72
2022/09/10 11:03:09;;;;;;;3.28;1.15;;;19.40;99.90;;;;;;5018978;28;24674;-72
2022/09/10 11:05:56;;;;;;;3.03;1.30;;;19.50;99.90;;;;;;5016286;28;20033;-72
2022/09/10 11:08:54;;;;;;;2.05;1.60;;;19.60;99.90;;;;;;5018057;28;20033;-71
2022/09/10 11:11:22;;;;;;;4.63;2.13;;;19.80;99.90;;;;;;5018736;28;20506;-74
2022/09/10 11:14:15;;;;;;;4.63;1.75;;;19.90;99.90;;;;;;5016441;28;20030;-72
2022/09/10 11:16:47;;;;;;;2.90;1.65;;;19.90;99.90;;;;;;5017797;28;20386;-74
2022/09/10 11:19:16;;;;;;;1.65;1.00;;;20.00;99.90;;;;;;5020210;28;20026;-74
2022/09/10 11:21:58;;;;;;;2.75;1.20;;;20.10;99.90;;;;;;5015588;28;20566;-73
2022/09/10 11:25:18;;;;;;;1.73;0.77;;;20.20;99.90;;;;;;5019988;28;20041;-74
2022/09/10 11:27:55;;;;;;;0.90;0.60;;;20.00;99.90;;;;;;4973531;28;20530;-74
2022/09/10 11:30:21;;;;;;;2.55;0.77;;;20.00;99.90;;;;;;5021258;28;20405;-74
2022/09/10 11:32:59;;;;;;;1.17;0.80;;;20.00;99.90;;;;;;5017178;28;20149;-75
2022/09/10 11:35:33;;;;;;;3.42;0.98;;;20.10;99.90;;;;;;5017314;28;20162;-74
2022/09/10 11:38:21;;;;;;;1.08;0.80;;;20.10;99.90;;;;;;5016386;28;20026;-75
2022/09/10 11:41:15;;;;;;;1.15;0.82;;;20.20;99.90;;;;;;4983576;28;1082043;-74
2022/09/10 11:44:02;;;;;;;1.83;0.93;;;20.10;99.90;;;;;;5021100;28;20056;-74
2022/09/10 11:46:34;;;;;;;0.88;0.50;;;20.10;99.90;;;;;;5018910;28;20033;-75
2022/09/10 11:49:08;;;;;;;1.05;0.80;;;20.10;99.90;;;;;;5019404;28;20076;-74
2022/09/10 11:51:39;;;;;;;1.20;0.50;;;20.10;99.90;;;;;;5019376;28;20045;-74
2022/09/10 11:54:17;;;;;;;1.25;0.52;;;20.20;99.90;;;;;;5020842;28;20124;-75
2022/09/10 11:57:01;;;;;;;1.50;0.70;;;20.20;99.90;;;;;;5019780;28;20763;-74
2022/09/10 11:59:49;;;;;;;1.65;0.63;;;20.30;99.90;;;;;;5015921;28;20090;-74
2022/09/10 12:02:47;;;;;;;3.47;1.40;;;20.30;99.90;;;;;;5019776;28;20029;-73
2022/09/10 12:05:34;;;;;;;1.77;1.00;;;20.30;99.90;;;;;;5018662;28;20045;-74
2022/09/10 12:08:39;;;;;;;1.10;0.60;;;20.20;99.90;;;;;;5019018;28;20522;-74
2022/09/10 12:11:14;;;;;;;1.65;0.95;;;20.30;99.90;;;;;;5018586;28;20582;-73
2022/09/10 12:13:41;;;;;;;2.65;0.60;;;20.20;99.90;;;;;;5018216;28;20067;-75
2022/09/10 12:16:28;;;;;;;1.50;0.65;;;20.20;99.90;;;;;;5017750;28;20492;-72
2022/09/10 12:18:55;;;;;;;1.30;0.52;;;20.20;99.90;;;;;;5017086;28;20137;-74
2022/09/10 12:21:31;;;;;;;1.02;0.50;;;20.20;99.90;;;;;;5020217;28;20026;-75
2022/09/10 12:23:58;;;;;;;1.95;0.68;;;20.20;99.90;;;;;;5013353;28;20053;-74
2022/09/10 12:26:24;;;;;;;0.55;0.35;;;20.20;99.90;;;;;;5018940;28;20041;-74
2022/09/10 12:28:50;;;;;;;1.40;0.40;;;20.20;99.90;;;;;;5019979;28;20448;-74
2022/09/10 12:31:18;;;;;;;0.98;0.40;;;20.20;99.90;;;;;;5019660;28;20034;-74
2022/09/10 12:33:44;;;;;;;4.40;0.90;;;20.20;99.90;;;;;;5020837;28;20394;-74
2022/09/10 12:36:30;;;;;;;1.13;0.52;;;20.20;99.90;;;;;;5016669;28;20048;-74
2022/09/10 12:39:24;;;;;;;0.98;0.52;;;20.20;99.90;;;;;;5006574;28;20053;-72
2022/09/10 12:41:49;;;;;;;3.20;1.15;;;20.30;99.90;;;;;;5011749;28;20053;-75
2022/09/10 12:44:35;;;;;;;2.13;0.80;;;20.30;99.90;;;;;;5019524;28;20840;-74
2022/09/10 12:47:16;;;;;;;2.55;0.85;;;20.30;99.90;;;;;;5018176;28;20041;-73
2022/09/10 12:49:56;;;;;;;1.30;0.77;;;20.30;99.90;;;;;;5027760;28;20045;-74
2022/09/10 12:52:40;;;;;;;3.60;0.93;;;20.20;99.90;;;;;;5028026;28;20120;-74
2022/09/10 12:55:12;;;;;;;1.83;0.90;;;20.10;99.90;;;;;;5024519;28;20253;-73
2022/09/10 12:58:04;;;;;;;2.25;1.00;;;20.10;99.90;;;;;;5020547;28;20025;-74
2022/09/10 13:00:59;;;;;;;1.35;0.70;;;20.20;99.90;;;;;;5021928;28;20034;-73
2022/09/10 13:03:27;;;;;;;1.05;0.60;;;20.20;99.90;;;;;;5019192;28;20040;-74